createdAt,value
2018-09-14T00:00:18.609Z,19.10
2018-09-14T00:02:46.497Z,19.00
2018-09-14T00:05:14.388Z,18.90
2018-09-14T00:07:42.254Z,19.00
2018-09-14T00:10:10.161Z,18.90
2018-09-14T00:12:38.009Z,18.90
2018-09-14T00:15:05.852Z,18.80
2018-09-14T00:17:34.001Z,18.70
2018-09-14T00:20:01.899Z,18.70
2018-09-14T00:22:29.674Z,18.60
2018-09-14T00:24:57.572Z,18.60
2018-09-14T00:27:25.361Z,18.50
2018-09-14T00:29:53.188Z,18.50
2018-09-14T00:32:21.032Z,18.40
2018-09-14T00:34:48.837Z,18.40
2018-09-14T00:37:17.289Z,18.30
2018-09-14T00:39:45.157Z,18.30
2018-09-14T00:42:12.937Z,18.20
2018-09-14T00:44:40.722Z,18.30
2018-09-14T00:47:08.583Z,18.30
2018-09-14T00:49:36.577Z,18.20
2018-09-14T00:52:04.389Z,18.20
2018-09-14T00:54:32.148Z,18.10
2018-09-14T00:56:59.977Z,18.10
2018-09-14T00:59:27.922Z,18.20
2018-09-14T01:01:55.810Z,18.50
2018-09-14T01:04:23.733Z,18.50
2018-09-14T01:06:51.516Z,18.40
2018-09-14T01:09:27.414Z,18.30
2018-09-14T01:11:56.860Z,18.20
2018-09-14T01:14:25.581Z,18.20
2018-09-14T01:16:53.949Z,18.00
2018-09-14T01:19:21.749Z,18.00
2018-09-14T01:21:49.568Z,17.90
2018-09-14T01:24:17.361Z,18.00
2018-09-14T01:26:45.151Z,18.00
2018-09-14T01:29:13.032Z,17.60
2018-09-14T01:31:40.877Z,18.10
2018-09-14T01:34:08.761Z,18.10
2018-09-14T01:36:36.597Z,18.10
2018-09-14T01:39:07.717Z,18.10
2018-09-14T01:41:35.576Z,18.10
2018-09-14T01:44:03.463Z,18.10
2018-09-14T01:46:31.252Z,18.20
2018-09-14T01:48:59.110Z,18.20
2018-09-14T01:51:26.929Z,18.20
2018-09-14T01:53:54.952Z,18.20
2018-09-14T01:56:22.735Z,18.20
2018-09-14T01:58:50.540Z,18.20
2018-09-14T02:01:19.705Z,18.20
2018-09-14T02:03:48.022Z,18.30
2018-09-14T02:06:15.887Z,18.30
2018-09-14T02:08:43.753Z,18.30
2018-09-14T02:11:11.665Z,18.30
2018-09-14T02:13:39.456Z,18.30
2018-09-14T02:16:07.281Z,18.30
2018-09-14T02:18:35.145Z,18.30
2018-09-14T02:21:02.989Z,18.30
2018-09-14T02:23:30.788Z,18.30
2018-09-14T02:25:58.549Z,18.30
2018-09-14T02:28:26.366Z,18.30
2018-09-14T02:30:55.885Z,18.30
2018-09-14T02:33:23.846Z,18.30
2018-09-14T02:35:51.763Z,18.30
2018-09-14T02:38:19.637Z,18.30
2018-09-14T02:40:47.443Z,18.20
2018-09-14T02:43:15.377Z,18.20
2018-09-14T02:45:43.213Z,18.20
2018-09-14T02:48:11.134Z,18.30
2018-09-14T02:50:38.942Z,18.30
2018-09-14T02:53:06.732Z,18.30
2018-09-14T02:55:34.585Z,18.20
2018-09-14T02:58:02.417Z,18.20
2018-09-14T03:00:30.237Z,18.10
2018-09-14T03:02:58.899Z,18.10
2018-09-14T03:05:26.753Z,18.10
2018-09-14T03:07:54.620Z,18.10
2018-09-14T03:10:22.433Z,18.10
2018-09-14T03:12:50.329Z,18.10
2018-09-14T03:15:18.313Z,18.10
2018-09-14T03:17:46.280Z,18.20
2018-09-14T03:20:14.281Z,18.20
2018-09-14T03:22:42.187Z,18.10
2018-09-14T03:25:10.029Z,18.10
2018-09-14T03:27:37.925Z,18.10
2018-09-14T03:30:05.841Z,18.10
2018-09-14T03:32:34.539Z,18.10
2018-09-14T03:35:02.429Z,18.20
2018-09-14T03:37:30.877Z,18.20
2018-09-14T03:39:58.749Z,18.20
2018-09-14T03:42:29.001Z,18.20
2018-09-14T03:44:57.313Z,18.20
2018-09-14T03:47:25.645Z,18.20
2018-09-14T03:49:53.485Z,18.20
2018-09-14T03:52:21.301Z,18.20
2018-09-14T03:54:49.092Z,18.20
2018-09-14T03:57:17.057Z,18.20
2018-09-14T03:59:44.815Z,18.20
2018-09-14T04:02:12.606Z,18.20
2018-09-14T04:04:40.405Z,18.20
2018-09-14T04:07:08.226Z,18.20
2018-09-14T04:09:35.993Z,18.20
2018-09-14T04:12:03.804Z,18.20
2018-09-14T04:14:31.929Z,18.20
2018-09-14T04:16:59.837Z,18.20
2018-09-14T04:19:27.620Z,18.20
2018-09-14T04:21:55.640Z,18.20
2018-09-14T04:24:23.538Z,18.20
2018-09-14T04:26:51.416Z,18.20
2018-09-14T04:29:19.257Z,18.20
2018-09-14T04:31:47.200Z,18.20
2018-09-14T04:34:15.106Z,18.20
2018-09-14T04:36:42.991Z,18.20
2018-09-14T04:39:10.868Z,18.20
2018-09-14T04:41:38.918Z,18.20
2018-09-14T04:44:06.879Z,18.10
2018-09-14T04:46:35.760Z,18.10
2018-09-14T04:49:03.665Z,18.20
2018-09-14T04:51:31.866Z,18.20
2018-09-14T04:53:59.641Z,18.10
2018-09-14T04:56:27.517Z,18.10
2018-09-14T04:58:55.405Z,18.10
2018-09-14T05:01:23.378Z,18.00
2018-09-14T05:03:51.564Z,18.00
2018-09-14T05:06:19.561Z,18.00
2018-09-14T05:08:47.514Z,18.00
2018-09-14T05:11:15.597Z,18.00
2018-09-14T05:13:43.485Z,18.00
2018-09-14T05:16:11.321Z,18.00
2018-09-14T05:18:39.269Z,18.00
2018-09-14T05:21:07.792Z,18.00
2018-09-14T05:23:35.609Z,18.00
2018-09-14T05:26:03.509Z,18.00
2018-09-14T05:28:31.372Z,18.00
2018-09-14T05:30:59.238Z,18.00
2018-09-14T05:33:27.153Z,18.00
2018-09-14T05:35:55.165Z,18.00
2018-09-14T05:38:23.159Z,18.00
2018-09-14T05:40:51.064Z,18.10
2018-09-14T05:43:19.081Z,18.00
2018-09-14T05:45:49.271Z,18.00
2018-09-14T05:48:17.170Z,18.00
2018-09-14T05:50:45.344Z,18.00
2018-09-14T05:53:13.190Z,18.00
2018-09-14T05:55:41.623Z,18.00
2018-09-14T05:58:09.483Z,18.10
2018-09-14T06:00:37.349Z,18.10
2018-09-14T06:03:05.174Z,18.10
2018-09-14T06:05:33.045Z,18.20
2018-09-14T06:08:00.930Z,18.20
2018-09-14T06:10:28.777Z,18.30
2018-09-14T06:12:56.788Z,18.40
2018-09-14T06:15:24.609Z,18.30
2018-09-14T06:17:52.952Z,18.30
2018-09-14T06:20:20.848Z,18.40
2018-09-14T06:22:48.688Z,18.50
2018-09-14T06:25:17.299Z,18.50
2018-09-14T06:27:45.130Z,18.50
2018-09-14T06:30:12.969Z,18.50
2018-09-14T06:32:40.743Z,18.60
2018-09-14T06:35:08.541Z,18.60
2018-09-14T06:37:36.304Z,18.60
2018-09-14T06:40:04.133Z,18.60
2018-09-14T06:42:31.936Z,18.70
2018-09-14T06:44:59.728Z,18.80
2018-09-14T06:47:27.540Z,18.80
2018-09-14T06:49:55.416Z,18.90
2018-09-14T06:52:23.213Z,19.00
2018-09-14T06:54:51.081Z,19.10
2018-09-14T06:57:18.890Z,19.20
2018-09-14T06:59:46.829Z,19.20
2018-09-14T07:02:14.644Z,19.30
2018-09-14T07:04:42.437Z,19.40
2018-09-14T07:07:10.213Z,19.60
2018-09-14T07:09:37.980Z,19.70
2018-09-14T07:12:05.761Z,19.80
2018-09-14T07:14:33.575Z,19.80
2018-09-14T07:17:01.373Z,19.90
2018-09-14T07:19:30.152Z,20.10
2018-09-14T07:21:58.015Z,20.20
2018-09-14T07:24:25.906Z,20.40
2018-09-14T07:26:53.595Z,20.60
2018-09-14T07:29:21.435Z,20.70
2018-09-14T07:31:49.348Z,20.90
2018-09-14T07:34:17.201Z,21.10
2018-09-14T07:36:45.005Z,21.30
2018-09-14T07:39:12.805Z,21.60
2018-09-14T07:41:40.781Z,21.80
2018-09-14T07:44:08.595Z,22.20
2018-09-14T07:46:36.394Z,22.50
2018-09-14T07:49:04.234Z,22.50
2018-09-14T07:51:32.060Z,22.40
2018-09-14T07:53:59.858Z,22.50
2018-09-14T07:56:27.666Z,22.50
2018-09-14T07:58:56.061Z,22.70
2018-09-14T08:01:24.033Z,22.70
2018-09-14T08:03:51.877Z,22.80
2018-09-14T08:06:19.725Z,22.90
2018-09-14T08:08:47.746Z,22.90
2018-09-14T08:11:15.743Z,23.00
2018-09-14T08:13:43.561Z,23.10
2018-09-14T08:16:11.329Z,23.10
2018-09-14T08:18:39.145Z,23.20
2018-09-14T08:21:06.981Z,23.20
2018-09-14T08:23:34.719Z,23.20
2018-09-14T08:26:02.498Z,23.20
2018-09-14T08:28:30.265Z,23.10
2018-09-14T08:30:58.064Z,23.00
2018-09-14T08:33:25.869Z,23.00
2018-09-14T08:35:53.672Z,22.90
2018-09-14T08:38:21.472Z,22.80
2018-09-14T08:40:49.337Z,22.80
2018-09-14T08:43:17.354Z,22.80
2018-09-14T08:45:45.281Z,22.80
2018-09-14T08:48:13.122Z,22.80
2018-09-14T08:50:40.912Z,22.60
2018-09-14T08:53:08.677Z,22.80
2018-09-14T08:55:36.461Z,22.90
2018-09-14T08:58:05.254Z,23.00
2018-09-14T09:00:33.124Z,23.00
2018-09-14T09:03:00.912Z,23.20
2018-09-14T09:05:28.705Z,23.50
2018-09-14T09:07:56.523Z,24.20
2018-09-14T09:10:24.319Z,24.80
2018-09-14T09:12:52.221Z,25.30
2018-09-14T09:15:20.080Z,25.80
2018-09-14T09:17:48.072Z,26.20
2018-09-14T09:20:16.010Z,26.70
2018-09-14T09:22:43.824Z,27.30
2018-09-14T09:25:11.653Z,27.80
2018-09-14T09:27:39.434Z,28.30
2018-09-14T09:30:07.310Z,28.70
2018-09-14T09:32:35.153Z,29.30
2018-09-14T09:35:03.017Z,29.80
2018-09-14T09:37:30.793Z,30.30
2018-09-14T09:39:58.594Z,30.60
2018-09-14T09:42:26.473Z,31.20
2018-09-14T09:44:54.271Z,31.60
2018-09-14T09:47:22.046Z,32.00
2018-09-14T09:49:49.931Z,32.30
2018-09-14T09:52:17.769Z,32.60
2018-09-14T09:54:45.614Z,32.90
2018-09-14T09:57:13.394Z,33.30
2018-09-14T09:59:41.272Z,33.50
2018-09-14T10:02:14.929Z,33.70
2018-09-14T10:06:50.928Z,34.10
2018-09-14T10:09:18.845Z,34.60
2018-09-14T10:11:46.639Z,34.40
2018-09-14T10:14:14.587Z,34.40
2018-09-14T10:16:42.281Z,34.50
2018-09-14T10:19:10.133Z,34.70
2018-09-14T10:21:37.943Z,34.60
2018-09-14T10:24:05.557Z,34.30
2018-09-14T10:26:33.389Z,34.20
2018-09-14T10:29:01.227Z,34.20
2018-09-14T10:31:29.021Z,34.40
2018-09-14T10:33:56.993Z,34.40
2018-09-14T10:36:24.729Z,34.60
2018-09-14T10:38:52.588Z,34.80
2018-09-14T10:41:20.350Z,35.00
2018-09-14T10:43:48.225Z,35.00
2018-09-14T10:46:16.020Z,35.00
2018-09-14T10:48:44.195Z,35.00
2018-09-14T10:51:12.033Z,35.10
2018-09-14T10:53:39.827Z,35.10
2018-09-14T10:56:07.585Z,35.30
2018-09-14T10:58:41.029Z,35.60
2018-09-14T11:01:09.029Z,35.70
2018-09-14T11:03:36.821Z,35.80
2018-09-14T11:06:04.603Z,35.90
2018-09-14T11:08:32.460Z,36.10
2018-09-14T11:11:00.234Z,36.50
2018-09-14T11:13:28.121Z,36.70
2018-09-14T11:15:55.933Z,36.80
2018-09-14T11:18:23.753Z,36.90
2018-09-14T11:20:51.553Z,37.00
2018-09-14T11:23:19.625Z,37.00
2018-09-14T11:25:47.501Z,37.10
2018-09-14T11:28:15.260Z,37.30
2018-09-14T11:30:43.061Z,37.20
2018-09-14T11:33:10.848Z,37.20
2018-09-14T11:35:38.648Z,37.30
2018-09-14T11:38:06.477Z,37.40
2018-09-14T11:40:34.216Z,37.50
2018-09-14T11:43:02.036Z,37.40
2018-09-14T11:45:30.333Z,37.50
2018-09-14T11:47:58.165Z,37.70
2018-09-14T11:50:25.989Z,37.70
2018-09-14T11:52:53.788Z,37.70
2018-09-14T11:55:21.589Z,37.80
2018-09-14T11:57:49.586Z,38.00
2018-09-14T12:00:17.648Z,38.10
2018-09-14T12:02:45.496Z,38.30
2018-09-14T12:05:13.271Z,38.50
2018-09-14T12:07:41.090Z,38.70
2018-09-14T12:10:09.185Z,38.80
2018-09-14T12:12:36.993Z,38.70
2018-09-14T12:15:04.878Z,38.80
2018-09-14T12:17:32.669Z,38.70
2018-09-14T12:20:00.511Z,38.60
2018-09-14T12:22:28.297Z,38.70
2018-09-14T12:24:56.133Z,38.80
2018-09-14T12:27:24.085Z,38.80
2018-09-14T12:29:51.945Z,39.00
2018-09-14T12:32:19.924Z,39.10
2018-09-14T12:34:47.855Z,39.10
2018-09-14T12:37:15.660Z,39.30
2018-09-14T12:39:43.466Z,39.60
2018-09-14T12:42:12.129Z,39.70
2018-09-14T12:44:39.916Z,39.60
2018-09-14T12:47:07.705Z,39.30
2018-09-14T12:49:35.517Z,38.80
2018-09-14T12:52:03.301Z,38.30
2018-09-14T12:54:31.117Z,37.90
2018-09-14T12:56:58.904Z,37.50
2018-09-14T12:59:26.713Z,37.20
2018-09-14T13:01:54.536Z,37.00
2018-09-14T13:04:22.409Z,36.80
2018-09-14T13:06:50.491Z,36.50
2018-09-14T13:09:18.296Z,36.20
2018-09-14T13:11:46.115Z,35.90
2018-09-14T13:14:18.780Z,35.80
2018-09-14T13:16:47.048Z,35.70
2018-09-14T13:19:14.857Z,35.80
2018-09-14T13:21:42.633Z,36.00
2018-09-14T13:24:10.536Z,36.30
2018-09-14T13:26:38.334Z,36.50
2018-09-14T13:29:06.155Z,36.70
2018-09-14T13:31:33.908Z,36.90
2018-09-14T13:34:01.698Z,36.80
2018-09-14T13:36:29.546Z,36.70
2018-09-14T13:38:57.564Z,36.80
2018-09-14T13:41:25.346Z,36.80
2018-09-14T13:43:53.277Z,37.00
2018-09-14T13:46:21.091Z,37.30
2018-09-14T13:48:48.997Z,37.50
2018-09-14T13:51:16.792Z,37.70
2018-09-14T13:53:44.606Z,37.90
2018-09-14T13:56:12.425Z,38.10
2018-09-14T13:58:40.239Z,38.30
2018-09-14T14:01:08.061Z,38.40
2018-09-14T14:03:35.808Z,38.50
2018-09-14T14:06:03.641Z,38.40
2018-09-14T14:08:31.436Z,38.40
2018-09-14T14:10:59.382Z,38.00
2018-09-14T14:13:27.241Z,37.70
2018-09-14T14:15:55.133Z,37.10
2018-09-14T14:18:22.941Z,36.80
2018-09-14T14:20:50.889Z,36.60
2018-09-14T14:23:18.746Z,36.80
2018-09-14T14:25:46.525Z,36.80
2018-09-14T14:28:14.341Z,36.80
2018-09-14T14:30:42.124Z,36.90
2018-09-14T14:33:09.884Z,36.90
2018-09-14T14:35:37.856Z,37.00
2018-09-14T14:38:05.713Z,37.00
2018-09-14T14:40:33.517Z,36.80
2018-09-14T14:43:01.291Z,36.30
2018-09-14T14:45:29.154Z,35.70
2018-09-14T14:47:56.973Z,35.50
2018-09-14T14:50:24.789Z,35.40
2018-09-14T14:52:52.624Z,35.40
2018-09-14T14:55:20.503Z,35.30
2018-09-14T14:57:48.325Z,35.00
2018-09-14T15:00:16.121Z,34.40
2018-09-14T15:02:43.897Z,33.90
2018-09-14T15:05:11.687Z,33.40
2018-09-14T15:07:39.476Z,32.90
2018-09-14T15:10:07.280Z,32.50
2018-09-14T15:12:35.125Z,31.90
2018-09-14T15:15:02.969Z,31.50
2018-09-14T15:17:30.821Z,31.10
2018-09-14T15:19:58.629Z,30.60
2018-09-14T15:22:26.425Z,30.30
2018-09-14T15:24:54.197Z,29.90
2018-09-14T15:27:22.076Z,29.50
2018-09-14T15:29:49.938Z,29.30
2018-09-14T15:32:17.760Z,29.00
2018-09-14T15:34:45.582Z,28.80
2018-09-14T15:37:13.420Z,28.50
2018-09-14T15:39:41.190Z,28.30
2018-09-14T15:42:09.012Z,28.10
2018-09-14T15:44:36.776Z,27.90
2018-09-14T15:47:04.578Z,27.70
2018-09-14T15:49:32.341Z,27.50
2018-09-14T15:52:00.165Z,27.30
2018-09-14T15:54:27.944Z,27.20
2018-09-14T15:56:55.756Z,27.00
2018-09-14T15:59:23.620Z,26.80
2018-09-14T16:01:51.493Z,26.80
2018-09-14T16:04:19.474Z,26.70
2018-09-14T16:06:47.309Z,26.70
2018-09-14T16:09:15.200Z,26.70
2018-09-14T16:11:42.982Z,26.70
2018-09-14T16:14:10.773Z,26.80
2018-09-14T16:16:38.589Z,26.80
2018-09-14T16:19:06.497Z,26.80
2018-09-14T16:21:34.196Z,26.80
2018-09-14T16:24:02.042Z,26.80
2018-09-14T16:26:31.724Z,26.80
2018-09-14T16:28:59.464Z,26.70
2018-09-14T16:31:27.243Z,26.60
2018-09-14T16:33:55.112Z,26.50
2018-09-14T16:36:22.996Z,26.30
2018-09-14T16:38:50.997Z,26.20
2018-09-14T16:41:18.775Z,26.00
2018-09-14T16:43:46.553Z,26.00
2018-09-14T16:46:14.305Z,25.80
2018-09-14T16:48:42.145Z,25.70
2018-09-14T16:51:09.913Z,25.70
2018-09-14T16:53:37.750Z,25.60
2018-09-14T16:56:05.601Z,25.50
2018-09-14T16:58:33.403Z,25.40
2018-09-14T17:01:01.239Z,25.40
2018-09-14T17:03:29.068Z,25.30
2018-09-14T17:05:56.997Z,25.20
2018-09-14T17:08:24.797Z,25.10
2018-09-14T17:10:52.565Z,25.10
2018-09-14T17:13:20.364Z,25.00
2018-09-14T17:15:48.165Z,24.90
2018-09-14T17:18:15.977Z,24.80
2018-09-14T17:20:43.802Z,24.70
2018-09-14T17:23:11.569Z,24.70
2018-09-14T17:25:39.349Z,24.60
2018-09-14T17:28:07.578Z,24.50
2018-09-14T17:30:35.402Z,24.50
2018-09-14T17:33:03.225Z,24.40
2018-09-14T17:35:31.108Z,24.40
2018-09-14T17:37:58.891Z,24.30
2018-09-14T17:40:26.693Z,24.20
2018-09-14T17:42:54.545Z,24.10
2018-09-14T17:45:22.472Z,24.10
2018-09-14T17:47:50.273Z,24.00
2018-09-14T17:50:18.061Z,23.90
2018-09-14T17:52:45.864Z,23.80
2018-09-14T17:55:13.665Z,23.70
2018-09-14T17:57:41.445Z,23.70
2018-09-14T18:00:09.322Z,23.60
2018-09-14T18:02:37.165Z,23.50
2018-09-14T18:05:05.041Z,23.40
2018-09-14T18:07:32.829Z,23.40
2018-09-14T18:10:00.661Z,23.30
2018-09-14T18:12:28.453Z,23.20
2018-09-14T18:14:56.533Z,23.10
2018-09-14T18:17:24.817Z,22.90
2018-09-14T18:19:52.752Z,22.90
2018-09-14T18:22:20.773Z,22.90
2018-09-14T18:24:48.550Z,22.80
2018-09-14T18:27:16.423Z,22.70
2018-09-14T18:29:44.209Z,22.70
2018-09-14T18:32:12.049Z,22.60
2018-09-14T18:34:40.100Z,22.50
2018-09-14T18:37:07.973Z,22.40
2018-09-14T18:39:35.816Z,22.30
2018-09-14T18:42:03.622Z,22.20
2018-09-14T18:44:31.453Z,22.10
2018-09-14T18:46:59.229Z,22.10
2018-09-14T18:49:27.118Z,22.00
2018-09-14T18:51:56.493Z,21.90
2018-09-14T18:54:24.364Z,22.00
2018-09-14T18:56:52.400Z,21.80
2018-09-14T18:59:20.334Z,21.70
2018-09-14T19:01:48.165Z,21.70
2018-09-14T19:04:16.080Z,21.60
2018-09-14T19:06:43.927Z,21.60
2018-09-14T19:09:12.231Z,21.50
2018-09-14T19:11:40.266Z,21.50
2018-09-14T19:14:08.168Z,21.40
2018-09-14T19:16:36.364Z,21.40
2018-09-14T19:19:04.185Z,21.40
2018-09-14T19:21:32.034Z,21.30
2018-09-14T19:23:59.797Z,21.20
2018-09-14T19:26:27.603Z,21.20
2018-09-14T19:28:55.557Z,21.10
2018-09-14T19:31:23.552Z,21.10
2018-09-14T19:33:51.501Z,21.00
2018-09-14T19:36:19.385Z,21.00
2018-09-14T19:38:47.257Z,21.00
2018-09-14T19:41:15.035Z,20.90
2018-09-14T19:43:42.844Z,20.90
2018-09-14T19:46:10.675Z,20.90
2018-09-14T19:48:38.522Z,20.90
2018-09-14T19:51:06.398Z,20.90
2018-09-14T19:53:34.290Z,20.80
2018-09-14T19:56:11.178Z,20.80
2018-09-14T19:58:39.231Z,20.80
2018-09-14T20:01:07.154Z,21.00
2018-09-14T20:03:35.049Z,20.80
2018-09-14T20:06:03.538Z,20.70
2018-09-14T20:08:31.340Z,20.70
2018-09-14T20:10:59.231Z,20.70
2018-09-14T20:13:27.041Z,20.70
2018-09-14T20:15:57.040Z,20.70
2018-09-14T20:18:25.018Z,20.80
2018-09-14T20:20:53.095Z,20.90
2018-09-14T20:23:21.037Z,20.80
2018-09-14T20:25:49.575Z,20.80
2018-09-14T20:28:17.442Z,20.80
2018-09-14T20:30:45.241Z,20.90
2018-09-14T20:33:13.063Z,20.80
2018-09-14T20:35:40.924Z,20.90
2018-09-14T20:38:08.857Z,20.80
2018-09-14T20:40:36.694Z,20.80
2018-09-14T20:43:04.585Z,20.80
2018-09-14T20:45:32.473Z,20.70
2018-09-14T20:48:00.311Z,20.70
2018-09-14T20:50:28.163Z,20.70
2018-09-14T20:52:55.965Z,20.70
2018-09-14T20:55:23.778Z,20.70
2018-09-14T20:57:51.596Z,20.80
2018-09-14T21:00:23.126Z,20.70
2018-09-14T21:02:51.284Z,20.60
2018-09-14T21:05:19.104Z,20.60
2018-09-14T21:07:50.757Z,20.60
2018-09-14T21:10:22.293Z,20.60
2018-09-14T21:12:50.351Z,20.60
2018-09-14T21:15:18.141Z,20.70
2018-09-14T21:17:45.996Z,20.70
2018-09-14T21:20:13.825Z,20.80
2018-09-14T21:22:42.158Z,20.70
2018-09-14T21:25:09.936Z,20.70
2018-09-14T21:27:37.740Z,20.60
2018-09-14T21:30:06.705Z,20.70
2018-09-14T21:32:35.057Z,20.70
2018-09-14T21:35:02.914Z,20.60
2018-09-14T21:37:30.698Z,20.60
2018-09-14T21:39:58.537Z,20.70
2018-09-14T21:42:26.302Z,20.70
2018-09-14T21:44:54.188Z,20.80
2018-09-14T21:47:22.005Z,20.70
2018-09-14T21:49:49.768Z,20.80
2018-09-14T21:52:17.545Z,20.90
2018-09-14T21:54:45.629Z,21.00
2018-09-14T21:57:13.433Z,20.90
2018-09-14T21:59:42.563Z,20.90
2018-09-14T22:02:10.397Z,20.80
2018-09-14T22:04:45.295Z,20.70
2018-09-14T22:07:13.099Z,20.70
2018-09-14T22:09:41.038Z,20.90
2018-09-14T22:12:08.813Z,20.70
2018-09-14T22:14:36.683Z,20.60
2018-09-14T22:17:04.499Z,20.60
2018-09-14T22:19:32.325Z,20.50
2018-09-14T22:22:00.231Z,20.50
2018-09-14T22:24:27.986Z,20.60
2018-09-14T22:26:55.825Z,20.60
2018-09-14T22:29:23.787Z,20.50
2018-09-14T22:31:51.747Z,20.40
2018-09-14T22:34:19.561Z,20.30
2018-09-14T22:36:47.345Z,20.30
2018-09-14T22:39:15.273Z,20.30
2018-09-14T22:41:43.382Z,20.20
2018-09-14T22:44:11.140Z,20.20
2018-09-14T22:46:38.996Z,20.20
2018-09-14T22:49:06.807Z,20.10
2018-09-14T22:51:34.653Z,20.10
2018-09-14T22:54:02.483Z,20.10
2018-09-14T22:56:30.340Z,20.10
2018-09-14T22:58:58.193Z,20.00
2018-09-14T23:01:26.118Z,20.10
2018-09-14T23:03:53.904Z,20.10
2018-09-14T23:06:21.846Z,20.00
2018-09-14T23:08:49.597Z,19.90
2018-09-14T23:11:17.370Z,19.90
2018-09-14T23:13:45.149Z,19.90
2018-09-14T23:16:13.485Z,19.80
2018-09-14T23:18:41.245Z,19.80
2018-09-14T23:21:09.273Z,19.80
2018-09-14T23:23:37.045Z,19.70
2018-09-14T23:26:07.832Z,19.60
2018-09-14T23:28:35.792Z,19.60
2018-09-14T23:31:03.614Z,19.60
2018-09-14T23:33:31.365Z,19.70
2018-09-14T23:35:59.197Z,19.70
2018-09-14T23:38:27.077Z,19.60
2018-09-14T23:40:55.003Z,19.50
2018-09-14T23:43:22.856Z,19.40
2018-09-14T23:45:50.649Z,19.40
2018-09-14T23:48:18.420Z,19.40
2018-09-14T23:50:46.230Z,19.30
2018-09-14T23:53:14.049Z,19.30
2018-09-14T23:55:41.875Z,19.30
2018-09-14T23:58:09.665Z,19.40
